Time;durP1;ratioP1;P1;durP2;ratioP2;P2;SDS_P1;SDS_P2;PMS_P1;PMS_P2;Temp;Humidity;BMP_temperature;BMP_pressure;BME280_temperature;BME280_humidity;BME280_pressure;Samples;Min_cycle;Max_cycle;Signal;HPM_P1;HPM_P2
2023/01/12 00:02:08;;;;;;;799.03;745.35;;;8.10;99.90;;;;;;5028911;28;20387;-59
2023/01/12 00:04:34;;;;;;;797.67;744.67;;;8.00;99.90;;;;;;5028946;28;20478;-58
2023/01/12 00:07:00;;;;;;;808.45;753.20;;;8.00;99.90;;;;;;5028463;28;20418;-62
2023/01/12 00:09:27;;;;;;;799.05;744.22;;;8.10;99.90;;;;;;5026785;28;20829;-55
2023/01/12 00:11:52;;;;;;;806.97;751.90;;;8.20;99.90;;;;;;5025473;28;20470;-60
2023/01/12 00:14:18;;;;;;;806.63;753.05;;;8.10;99.90;;;;;;5023986;28;20485;-59
2023/01/12 00:16:44;;;;;;;815.40;760.97;;;8.20;99.90;;;;;;5023716;28;20399;-60
2023/01/12 00:19:10;;;;;;;808.90;755.50;;;8.10;99.90;;;;;;5022401;28;20391;-60
2023/01/12 00:22:08;;;;;;;811.43;757.73;;;8.10;99.90;;;;;;5022755;28;20435;-57
2023/01/12 00:24:39;;;;;;;806.47;752.95;;;8.20;99.90;;;;;;5022897;28;20398;-55
2023/01/12 00:27:13;;;;;;;813.25;758.97;;;8.10;99.90;;;;;;5023687;28;20714;-57
2023/01/12 00:29:39;;;;;;;827.83;772.47;;;8.10;99.90;;;;;;5024870;28;20453;-59
2023/01/12 00:32:06;;;;;;;804.92;751.47;;;8.10;99.90;;;;;;5024981;28;20463;-60
2023/01/12 00:34:32;;;;;;;826.72;770.88;;;8.10;99.90;;;;;;5025268;28;20393;-58
2023/01/12 00:37:00;;;;;;;780.28;728.03;;;8.10;99.90;;;;;;5027928;28;20418;-58
2023/01/12 00:39:25;;;;;;;804.05;749.92;;;8.10;99.90;;;;;;5027528;28;20390;-59
2023/01/12 00:47:19;;;;;;;806.60;750.97;;;8.20;99.90;;;;;;5027137;28;20402;-60
2023/01/12 00:49:45;;;;;;;818.13;761.20;;;8.20;99.90;;;;;;5027222;28;20391;-59
2023/01/12 00:52:14;;;;;;;802.33;746.83;;;8.20;99.90;;;;;;5028742;28;20429;-60
2023/01/12 00:54:40;;;;;;;827.35;769.05;;;8.20;99.90;;;;;;5030034;28;20405;-60
2023/01/12 00:57:08;;;;;;;807.53;750.95;;;8.20;99.90;;;;;;5028992;28;20687;-60
2023/01/12 00:59:34;;;;;;;828.67;769.95;;;8.20;99.90;;;;;;5032235;28;20398;-59
2023/01/12 01:02:00;;;;;;;823.03;765.10;;;8.20;99.90;;;;;;5031592;28;20391;-59
2023/01/12 01:04:25;;;;;;;816.05;758.75;;;8.20;99.90;;;;;;5030135;28;20395;-59
2023/01/12 01:06:51;;;;;;;806.13;750.05;;;8.20;99.90;;;;;;5031050;28;20605;-59
2023/01/12 01:09:17;;;;;;;823.00;765.30;;;8.20;99.90;;;;;;5031211;28;20577;-62
2023/01/12 01:11:43;;;;;;;812.67;756.55;;;8.20;99.90;;;;;;5030662;28;20694;-59
2023/01/12 01:14:09;;;;;;;802.28;746.63;;;8.20;99.90;;;;;;5030210;28;20810;-60
2023/01/12 01:16:35;;;;;;;799.50;743.90;;;8.20;99.90;;;;;;5030713;28;20457;-60
2023/01/12 01:19:03;;;;;;;817.58;760.25;;;8.20;99.90;;;;;;5030110;28;20395;-60
2023/01/12 01:21:30;;;;;;;807.15;751.35;;;8.20;99.90;;;;;;5029733;28;20946;-57
2023/01/12 01:23:55;;;;;;;796.65;741.47;;;8.20;99.90;;;;;;5029332;28;20653;-60
2023/01/12 01:26:23;;;;;;;779.90;726.00;;;8.20;99.90;;;;;;5030233;28;20394;-60
2023/01/12 01:28:49;;;;;;;745.78;695.03;;;8.30;99.90;;;;;;5030330;28;20461;-61
2023/01/12 01:31:21;;;;;;;753.25;702.05;;;8.30;99.90;;;;;;5030799;28;20728;-57
2023/01/12 01:33:47;;;;;;;752.22;700.30;;;8.30;99.90;;;;;;5032228;28;20391;-60
2023/01/12 01:36:14;;;;;;;759.57;707.33;;;8.40;99.90;;;;;;5030930;28;20501;-59
2023/01/12 01:38:41;;;;;;;770.00;716.10;;;8.40;99.90;;;;;;5032517;28;20397;-58
2023/01/12 01:41:14;;;;;;;723.88;674.90;;;8.40;99.90;;;;;;5034302;28;20470;-60
2023/01/12 01:43:58;;;;;;;716.45;668.45;;;8.40;99.90;;;;;;5032912;28;20687;-59
2023/01/12 01:46:30;;;;;;;730.87;681.03;;;8.40;99.90;;;;;;5032971;28;20383;-57
2023/01/12 01:49:00;;;;;;;734.15;684.15;;;8.50;99.90;;;;;;5033851;28;20755;-58
2023/01/12 01:51:26;;;;;;;712.60;664.53;;;8.50;99.90;;;;;;5031627;28;20693;-57
2023/01/12 01:53:52;;;;;;;743.40;693.33;;;8.40;99.90;;;;;;5032554;28;20791;-61
2023/01/12 01:56:30;;;;;;;698.38;652.25;;;8.50;99.90;;;;;;5032775;28;20445;-59
2023/01/12 01:59:06;;;;;;;733.47;683.93;;;8.50;99.90;;;;;;5033558;28;20378;-61
2023/01/12 02:01:32;;;;;;;712.80;665.40;;;8.50;99.90;;;;;;5031489;28;20421;-64
2023/01/12 02:03:59;;;;;;;716.23;668.63;;;8.50;99.90;;;;;;5030199;28;20395;-60
2023/01/12 02:06:26;;;;;;;719.43;671.80;;;8.50;99.90;;;;;;5031358;28;21143;-60
2023/01/12 02:09:25;;;;;;;723.40;675.23;;;8.50;99.90;;;;;;5031647;28;20411;-60
2023/01/12 02:17:42;;;;;;;695.03;649.00;;;8.60;99.90;;;;;;5027511;28;20460;-60
2023/01/12 02:20:35;;;;;;;691.63;646.15;;;8.60;99.90;;;;;;5025271;28;20383;-61
2023/01/12 02:23:29;;;;;;;688.40;643.08;;;8.60;99.90;;;;;;5023713;28;20472;-59
2023/01/12 02:26:12;;;;;;;685.65;641.35;;;8.60;99.90;;;;;;5026543;28;20394;-59
2023/01/12 02:29:00;;;;;;;708.95;662.22;;;8.60;99.90;;;;;;5029371;28;20550;-56
2023/01/12 02:31:56;;;;;;;694.63;649.53;;;8.60;99.90;;;;;;5029901;28;20390;-60
2023/01/12 02:34:40;;;;;;;712.35;665.10;;;8.60;99.90;;;;;;5030361;28;20531;-57
2023/01/12 02:37:15;;;;;;;714.55;666.92;;;8.60;99.90;;;;;;5030357;28;20395;-60
2023/01/12 02:39:58;;;;;;;707.95;661.17;;;8.60;99.90;;;;;;5030290;28;20522;-59
2023/01/12 02:42:54;;;;;;;707.58;660.80;;;8.60;99.90;;;;;;5031750;28;20406;-58
2023/01/12 02:45:32;;;;;;;706.05;659.08;;;8.60;99.90;;;;;;5031801;28;20383;-60
2023/01/12 02:48:16;;;;;;;726.85;677.70;;;8.60;99.90;;;;;;5035145;28;20430;-60
2023/01/12 02:50:54;;;;;;;724.58;676.47;;;8.60;99.90;;;;;;5034669;28;20394;-58
2023/01/12 02:53:31;;;;;;;739.60;689.70;;;8.60;99.90;;;;;;5035179;28;20401;-61
2023/01/12 02:56:03;;;;;;;712.53;665.60;;;8.60;99.90;;;;;;5034810;28;20698;-58
2023/01/12 02:58:34;;;;;;;712.20;665.60;;;8.60;99.90;;;;;;5033677;28;20425;-60
2023/01/12 03:01:02;;;;;;;689.20;643.78;;;8.60;99.90;;;;;;5034549;28;20383;-60
2023/01/12 03:03:28;;;;;;;718.08;670.83;;;8.60;99.90;;;;;;5033628;28;20699;-60
2023/01/12 03:05:58;;;;;;;740.38;690.72;;;8.60;99.90;;;;;;5033768;28;20407;-60
2023/01/12 03:08:27;;;;;;;726.28;678.13;;;8.60;99.90;;;;;;5034758;28;20414;-60
2023/01/12 03:11:02;;;;;;;731.55;683.25;;;8.60;99.90;;;;;;5035385;28;20379;-57
2023/01/12 03:13:32;;;;;;;728.47;680.63;;;8.60;99.90;;;;;;5035393;28;20382;-57
2023/01/12 03:15:59;;;;;;;738.17;689.03;;;8.60;99.90;;;;;;5033998;28;20728;-55
2023/01/12 03:18:41;;;;;;;711.92;665.00;;;8.60;99.90;;;;;;5034004;28;20391;-60
2023/01/12 03:21:30;;;;;;;716.95;669.97;;;8.60;99.90;;;;;;5033453;28;20446;-58
2023/01/12 03:24:13;;;;;;;677.13;633.53;;;8.50;99.90;;;;;;5020822;28;20402;-58
2023/01/12 03:26:44;;;;;;;697.78;652.15;;;8.50;99.90;;;;;;5033141;28;20418;-58
2023/01/12 03:29:20;;;;;;;703.63;658.10;;;8.50;99.90;;;;;;5033191;28;20472;-60
2023/01/12 03:31:46;;;;;;;674.25;631.22;;;8.50;99.90;;;;;;5032282;28;20453;-58
2023/01/12 03:34:12;;;;;;;661.43;619.67;;;8.50;99.90;;;;;;5033179;28;20411;-60
2023/01/12 03:36:59;;;;;;;643.08;602.92;;;8.50;99.90;;;;;;5033723;28;20417;-60
2023/01/12 03:39:30;;;;;;;689.40;644.58;;;8.50;99.90;;;;;;5031906;28;20494;-60
2023/01/12 03:42:06;;;;;;;678.95;634.83;;;8.50;99.90;;;;;;5032449;28;20473;-60
2023/01/12 03:44:42;;;;;;;675.10;631.80;;;8.40;99.90;;;;;;5032040;28;20391;-58
2023/01/12 03:47:17;;;;;;;648.35;607.83;;;8.50;99.90;;;;;;5030499;28;20383;-60
2023/01/12 03:49:53;;;;;;;654.45;612.95;;;8.50;99.90;;;;;;5029660;28;20606;-59
2023/01/12 03:52:21;;;;;;;645.50;605.33;;;8.50;99.90;;;;;;5029869;28;20421;-61
2023/01/12 03:54:48;;;;;;;687.93;643.50;;;8.50;99.90;;;;;;5029702;28;20706;-59
2023/01/12 03:57:15;;;;;;;677.10;634.22;;;8.40;99.90;;;;;;5030204;28;20387;-60
2023/01/12 03:59:41;;;;;;;697.13;651.20;;;8.40;99.90;;;;;;5030604;28;20470;-59
2023/01/12 04:02:07;;;;;;;717.70;670.30;;;8.40;99.90;;;;;;5029927;28;20526;-60
2023/01/12 04:04:33;;;;;;;699.83;654.20;;;8.40;99.90;;;;;;5032193;28;20393;-60
2023/01/12 04:07:14;;;;;;;700.97;655.30;;;8.40;99.90;;;;;;5035011;28;20740;-57
2023/01/12 04:09:39;;;;;;;702.28;656.40;;;8.40;99.90;;;;;;5033791;28;20384;-60
2023/01/12 04:12:11;;;;;;;702.40;656.72;;;8.40;99.90;;;;;;5033383;28;20391;-59
2023/01/12 04:14:42;;;;;;;737.08;687.33;;;8.40;99.90;;;;;;5033507;28;20430;-54
2023/01/12 04:17:12;;;;;;;722.17;674.05;;;8.40;99.90;;;;;;5031908;28;20458;-56
2023/01/12 04:19:38;;;;;;;744.38;693.53;;;8.40;99.90;;;;;;5031902;28;20379;-60
2023/01/12 04:24:47;;;;;;;773.30;720.67;;;8.40;99.90;;;;;;5032977;28;20456;-61
2023/01/12 04:27:14;;;;;;;749.47;698.13;;;8.40;99.90;;;;;;5031497;28;20437;-60
2023/01/12 04:29:39;;;;;;;725.45;676.97;;;8.40;99.90;;;;;;5031307;28;20390;-59
2023/01/12 04:32:05;;;;;;;730.53;680.87;;;8.50;99.90;;;;;;5032705;28;20446;-56
2023/01/12 04:34:31;;;;;;;739.22;689.25;;;8.50;99.90;;;;;;5032488;28;20671;-59
2023/01/12 04:36:57;;;;;;;755.00;703.65;;;8.50;99.90;;;;;;5034036;28;20428;-57
2023/01/12 04:39:23;;;;;;;758.28;706.78;;;8.50;99.90;;;;;;5034473;28;20656;-56
2023/01/12 04:41:48;;;;;;;767.97;715.55;;;8.50;99.90;;;;;;5032940;28;20399;-59
2023/01/12 04:44:14;;;;;;;763.13;710.25;;;8.50;99.90;;;;;;5034790;28;20395;-60
2023/01/12 04:46:39;;;;;;;762.75;710.50;;;8.50;99.90;;;;;;5033537;28;20525;-55
2023/01/12 04:49:05;;;;;;;757.43;705.47;;;8.50;99.90;;;;;;5033275;28;20472;-58
2023/01/12 04:51:30;;;;;;;748.23;697.47;;;8.50;99.90;;;;;;5033592;28;20399;-60
2023/01/12 04:53:56;;;;;;;739.60;689.20;;;8.60;99.90;;;;;;5030231;28;20728;-57
2023/01/12 04:56:22;;;;;;;744.17;694.40;;;8.50;99.90;;;;;;5030455;28;20391;-59
2023/01/12 04:58:47;;;;;;;739.37;688.57;;;8.50;99.90;;;;;;5030158;28;20753;-59
2023/01/12 05:01:16;;;;;;;761.67;709.77;;;8.60;99.90;;;;;;5028844;28;20393;-59
2023/01/12 05:03:43;;;;;;;761.25;709.17;;;8.60;99.90;;;;;;5029395;28;20391;-61
2023/01/12 05:06:09;;;;;;;754.42;702.70;;;8.60;99.90;;;;;;5027401;28;20489;-59
2023/01/12 05:11:20;;;;;;;755.77;703.33;;;8.60;99.90;;;;;;5029808;28;20463;-60
2023/01/12 05:13:46;;;;;;;755.88;703.85;;;8.60;99.90;;;;;;5028588;28;20379;-61
2023/01/12 05:16:16;;;;;;;750.65;698.15;;;8.60;99.90;;;;;;5026109;28;20593;-58
2023/01/12 05:18:43;;;;;;;758.22;706.33;;;8.60;99.90;;;;;;5026302;28;20849;-59
2023/01/12 05:21:13;;;;;;;781.70;728.17;;;8.60;99.90;;;;;;5025061;28;20409;-57
2023/01/12 05:23:38;;;;;;;790.80;737.25;;;8.60;99.90;;;;;;5026153;28;20699;-59
2023/01/12 05:26:05;;;;;;;820.07;765.00;;;8.50;99.90;;;;;;5025977;28;20799;-59
2023/01/12 05:28:31;;;;;;;824.80;769.47;;;8.50;99.90;;;;;;5023947;28;20883;-58
2023/01/12 05:31:05;;;;;;;862.75;803.20;;;8.50;99.90;;;;;;5023797;28;20379;-58
2023/01/12 05:33:32;;;;;;;929.10;861.38;;;8.40;99.90;;;;;;5024999;28;20418;-59
2023/01/12 05:35:58;;;;;;;1054.95;972.33;;;8.40;99.90;;;;;;5026411;28;20668;-59
2023/01/12 05:38:24;;;;;;;1183.97;999.90;;;8.30;99.90;;;;;;5026816;28;20395;-58
2023/01/12 05:40:49;;;;;;;1185.38;999.90;;;8.30;99.90;;;;;;5026674;28;20417;-60
2023/01/12 05:46:06;;;;;;;1229.50;999.90;;;8.20;99.90;;;;;;5025348;28;20534;-58
2023/01/12 05:48:32;;;;;;;1230.35;999.90;;;8.20;99.90;;;;;;5023232;28;20410;-60
2023/01/12 05:51:01;;;;;;;1162.57;999.90;;;8.20;99.90;;;;;;5025072;28;20406;-60
2023/01/12 05:53:28;;;;;;;1208.50;999.90;;;8.10;99.90;;;;;;5025140;28;20375;-60
2023/01/12 05:55:54;;;;;;;1220.47;999.90;;;8.10;99.90;;;;;;5026505;28;20383;-61
2023/01/12 05:58:19;;;;;;;1223.43;999.90;;;8.10;99.90;;;;;;5025694;28;20430;-56
2023/01/12 06:00:45;;;;;;;1235.65;999.90;;;8.10;99.90;;;;;;5023399;28;20434;-59
2023/01/12 06:03:11;;;;;;;1245.95;999.90;;;8.10;99.90;;;;;;5023906;28;20468;-61
2023/01/12 06:05:36;;;;;;;1224.85;999.90;;;8.10;99.90;;;;;;5022321;28;20647;-62
2023/01/12 06:08:02;;;;;;;1213.50;999.90;;;8.10;99.90;;;;;;5023217;28;20410;-60
2023/01/12 06:10:28;;;;;;;1217.37;999.90;;;8.10;99.90;;;;;;5022639;28;20545;-59
2023/01/12 06:15:38;;;;;;;1198.25;999.90;;;8.10;99.90;;;;;;5023961;28;20409;-59
2023/01/12 06:18:04;;;;;;;1183.25;999.90;;;8.10;99.90;;;;;;5023219;28;20423;-56
2023/01/12 06:20:30;;;;;;;1172.80;999.90;;;8.00;99.90;;;;;;5022168;28;20460;-59
2023/01/12 06:23:03;;;;;;;1171.88;999.90;;;8.10;99.90;;;;;;5021093;28;20691;-58
2023/01/12 06:25:30;;;;;;;1171.27;999.90;;;8.10;99.90;;;;;;5020180;28;20556;-58
2023/01/12 06:27:56;;;;;;;1181.75;999.90;;;8.10;99.90;;;;;;5018797;28;20783;-56
2023/01/12 06:30:22;;;;;;;1164.77;999.90;;;8.10;99.90;;;;;;5018782;28;20999;-58
2023/01/12 06:32:47;;;;;;;1150.82;999.90;;;8.10;99.90;;;;;;5019064;28;20968;-59
2023/01/12 06:35:13;;;;;;;1102.37;999.90;;;8.00;99.90;;;;;;5017966;28;20379;-57
2023/01/12 06:37:39;;;;;;;1120.38;999.90;;;8.10;99.90;;;;;;5016073;28;20498;-56
2023/01/12 06:40:05;;;;;;;1107.70;999.90;;;8.10;99.90;;;;;;5018089;28;20803;-59
2023/01/12 06:42:31;;;;;;;1133.07;999.90;;;8.10;99.90;;;;;;5019409;28;20438;-57
2023/01/12 06:44:59;;;;;;;1134.38;999.90;;;8.10;99.90;;;;;;5020759;28;20390;-59
2023/01/12 06:47:26;;;;;;;1112.13;999.90;;;8.10;99.90;;;;;;5021885;28;20410;-59
2023/01/12 06:49:52;;;;;;;1117.20;999.90;;;8.10;99.90;;;;;;5022105;28;20410;-59
2023/01/12 06:52:23;;;;;;;1127.35;999.90;;;8.10;99.90;;;;;;5022091;28;20747;-59
2023/01/12 06:54:49;;;;;;;1089.30;996.53;;;8.10;99.90;;;;;;5020776;28;20779;-58
2023/01/12 06:57:14;;;;;;;1099.82;999.90;;;8.20;99.90;;;;;;5021785;28;20682;-59
2023/01/12 06:59:43;;;;;;;1119.03;999.90;;;8.20;99.90;;;;;;5019533;28;20386;-59
2023/01/12 07:02:11;;;;;;;1110.80;999.90;;;8.20;99.90;;;;;;5015786;28;20395;-57
2023/01/12 07:04:37;;;;;;;1111.85;999.90;;;8.20;99.90;;;;;;5015549;28;20449;-57
2023/01/12 07:07:03;;;;;;;1109.72;999.90;;;8.20;99.90;;;;;;5016409;28;20411;-60
2023/01/12 07:09:29;;;;;;;1088.90;996.95;;;8.20;99.90;;;;;;5016019;28;20387;-60
2023/01/12 07:11:55;;;;;;;1105.27;999.90;;;8.20;99.90;;;;;;5015764;28;20391;-59
2023/01/12 07:14:20;;;;;;;1094.13;999.60;;;8.20;99.90;;;;;;5018624;28;20526;-59
2023/01/12 07:16:46;;;;;;;1098.53;999.90;;;8.20;99.90;;;;;;5018744;28;20379;-60
2023/01/12 07:19:11;;;;;;;1114.80;999.90;;;8.20;99.90;;;;;;5017998;28;20611;-59
2023/01/12 07:21:37;;;;;;;1077.83;986.47;;;8.20;99.90;;;;;;5019277;28;20684;-59
2023/01/12 07:24:02;;;;;;;1099.15;999.90;;;8.20;99.90;;;;;;5016809;28;20825;-60
2023/01/12 07:26:28;;;;;;;1044.97;961.65;;;8.30;99.90;;;;;;5017264;28;20815;-60
2023/01/12 07:28:54;;;;;;;1083.90;996.40;;;8.30;99.90;;;;;;5018595;28;20402;-59
2023/01/12 07:31:20;;;;;;;1035.15;952.63;;;8.30;99.90;;;;;;5017381;28;20401;-60
2023/01/12 07:33:45;;;;;;;1051.40;966.30;;;8.30;99.90;;;;;;5014218;28;20387;-60
2023/01/12 07:36:11;;;;;;;1039.43;958.07;;;8.30;99.90;;;;;;5014833;28;20403;-60
2023/01/12 07:38:37;;;;;;;1048.57;963.17;;;8.30;99.90;;;;;;5015774;28;20668;-59
2023/01/12 07:41:03;;;;;;;1077.57;989.78;;;8.30;99.90;;;;;;5017708;28;20396;-60
2023/01/12 07:43:31;;;;;;;1015.77;935.10;;;8.30;99.90;;;;;;5021110;28;20517;-60
2023/01/12 07:45:57;;;;;;;1044.85;961.40;;;8.30;99.90;;;;;;5020745;28;20847;-59
2023/01/12 07:48:25;;;;;;;1043.55;960.97;;;8.30;99.90;;;;;;5020064;28;20608;-60
2023/01/12 07:50:51;;;;;;;1088.13;999.13;;;8.40;99.90;;;;;;5019903;28;20405;-58
2023/01/12 07:53:18;;;;;;;1023.88;942.45;;;8.30;99.90;;;;;;5018923;28;20624;-58
2023/01/12 07:55:43;;;;;;;1044.78;961.00;;;8.40;99.90;;;;;;5015470;28;20758;-58
2023/01/12 07:58:09;;;;;;;1005.88;926.70;;;8.40;99.90;;;;;;5014262;28;20876;-60
2023/01/12 08:00:36;;;;;;;1037.38;954.20;;;8.40;99.90;;;;;;5014441;28;20501;-60
2023/01/12 08:03:10;;;;;;;1040.72;957.83;;;8.40;99.90;;;;;;5013798;28;20980;-59
2023/01/12 08:05:37;;;;;;;1034.68;953.50;;;8.40;99.90;;;;;;5013982;28;20580;-59
2023/01/12 08:08:04;;;;;;;1056.00;972.50;;;8.40;99.90;;;;;;5013238;28;20403;-59
2023/01/12 08:10:30;;;;;;;1023.65;944.22;;;8.40;99.90;;;;;;5013857;28;20452;-60
2023/01/12 08:12:56;;;;;;;1026.35;946.88;;;8.40;99.90;;;;;;5017202;28;20380;-60
2023/01/12 08:15:24;;;;;;;1022.15;943.15;;;8.40;99.90;;;;;;5018151;28;20379;-58
2023/01/12 08:18:01;;;;;;;1118.47;999.90;;;8.30;99.90;;;;;;5014491;28;21020;-58
2023/01/12 08:20:32;;;;;;;1113.18;999.90;;;8.40;99.90;;;;;;5014886;28;20454;-60
2023/01/12 08:23:03;;;;;;;1106.20;999.90;;;8.40;99.90;;;;;;5014422;28;20802;-57
2023/01/12 08:25:34;;;;;;;1107.50;999.90;;;8.30;99.90;;;;;;5016953;28;20399;-60
2023/01/12 08:28:05;;;;;;;1057.00;974.88;;;8.30;99.90;;;;;;5024592;28;20407;-59
2023/01/12 08:30:31;;;;;;;1073.55;988.78;;;8.30;99.90;;;;;;5025741;28;20401;-60
2023/01/12 08:32:59;;;;;;;1067.80;983.90;;;8.30;99.90;;;;;;5027924;28;20835;-60
2023/01/12 08:35:28;;;;;;;1038.40;957.38;;;8.30;99.90;;;;;;5025715;28;20383;-59
2023/01/12 08:37:55;;;;;;;1022.97;943.50;;;8.30;99.90;;;;;;5025301;28;20403;-60
2023/01/12 08:40:21;;;;;;;1041.65;960.95;;;8.30;99.90;;;;;;5026416;28;20385;-60
2023/01/12 08:42:48;;;;;;;1090.23;999.90;;;8.30;99.90;;;;;;5025625;28;21096;-60
2023/01/12 08:45:14;;;;;;;1003.45;927.90;;;8.30;99.90;;;;;;5025457;28;20399;-60
2023/01/12 08:47:43;;;;;;;967.22;894.60;;;8.30;99.90;;;;;;5024295;28;20491;-61
2023/01/12 08:50:09;;;;;;;986.88;911.88;;;8.30;99.90;;;;;;5024412;28;20894;-59
2023/01/12 08:52:35;;;;;;;977.10;899.40;;;8.20;99.90;;;;;;5024352;28;20410;-60
2023/01/12 08:55:01;;;;;;;1016.87;935.33;;;8.20;99.90;;;;;;5021928;28;20988;-60
2023/01/12 08:57:27;;;;;;;1036.88;952.53;;;8.20;99.90;;;;;;5022420;28;20387;-58
2023/01/12 08:59:53;;;;;;;1043.97;958.92;;;8.20;99.90;;;;;;5022179;28;20397;-60
2023/01/12 09:02:19;;;;;;;1079.70;988.70;;;8.10;99.90;;;;;;5018986;28;20807;-60
2023/01/12 09:04:45;;;;;;;1044.68;961.35;;;8.20;99.90;;;;;;5017908;28;20387;-59
2023/01/12 09:07:11;;;;;;;1000.85;921.20;;;8.20;99.90;;;;;;5017398;28;20452;-61
2023/01/12 09:09:37;;;;;;;1041.10;955.80;;;8.20;99.90;;;;;;5017729;28;20391;-58
2023/01/12 09:12:04;;;;;;;1019.20;938.10;;;8.20;99.90;;;;;;5019014;28;20481;-60
2023/01/12 09:14:30;;;;;;;1036.13;951.65;;;8.20;99.90;;;;;;5018113;28;20503;-60
2023/01/12 09:16:55;;;;;;;1007.72;928.63;;;8.20;99.90;;;;;;5019601;28;20418;-60
2023/01/12 09:19:22;;;;;;;1023.53;941.43;;;8.20;99.90;;;;;;5020166;28;20399;-60
2023/01/12 09:21:48;;;;;;;1054.90;968.83;;;8.20;99.90;;;;;;5021163;28;20407;-57
2023/01/12 09:24:14;;;;;;;1026.97;944.17;;;8.20;99.90;;;;;;5019458;28;20401;-59
2023/01/12 09:26:42;;;;;;;1058.65;973.00;;;8.20;99.90;;;;;;5017896;28;21023;-59
2023/01/12 09:29:10;;;;;;;1085.93;994.45;;;8.20;99.90;;;;;;5017776;28;20442;-59
2023/01/12 09:31:38;;;;;;;1079.47;989.13;;;8.20;99.90;;;;;;5017127;28;20455;-60
2023/01/12 09:34:04;;;;;;;1092.93;999.47;;;8.20;99.90;;;;;;5019567;28;20375;-60
2023/01/12 09:36:33;;;;;;;1065.73;977.53;;;8.30;99.90;;;;;;5018431;28;20399;-60
2023/01/12 09:39:00;;;;;;;1072.65;983.45;;;8.30;99.90;;;;;;5020948;28;20675;-58
2023/01/12 09:47:39;;;;;;;1088.03;996.53;;;8.40;99.90;;;;;;5023015;28;20488;-60
2023/01/12 09:50:08;;;;;;;1089.00;997.00;;;8.50;99.90;;;;;;5021476;28;20387;-60
2023/01/12 09:52:42;;;;;;;1062.07;975.83;;;8.50;99.90;;;;;;5022429;28;20395;-61
2023/01/12 09:55:20;;;;;;;1072.27;984.17;;;8.50;99.90;;;;;;5024904;28;20493;-60
2023/01/12 09:58:07;;;;;;;1048.90;963.10;;;8.50;99.90;;;;;;5025006;28;20883;-61
2023/01/12 10:00:33;;;;;;;1049.57;965.88;;;8.60;99.90;;;;;;5025733;28;20441;-62
2023/01/12 10:03:06;;;;;;;1032.63;949.65;;;8.60;99.90;;;;;;5026182;28;20453;-62
2023/01/12 10:05:49;;;;;;;1012.38;933.35;;;8.70;99.90;;;;;;5027208;28;20383;-62
2023/01/12 10:08:14;;;;;;;1010.60;930.80;;;8.70;99.90;;;;;;5026615;28;20453;-61
2023/01/12 10:10:46;;;;;;;1046.15;961.40;;;8.80;99.90;;;;;;5027047;28;20387;-62
2023/01/12 10:13:13;;;;;;;1022.88;941.67;;;8.80;99.90;;;;;;5027728;28;20371;-61
2023/01/12 10:15:49;;;;;;;1051.70;966.72;;;8.80;99.90;;;;;;5031857;28;20388;-59
2023/01/12 10:18:28;;;;;;;1020.10;939.65;;;9.00;99.90;;;;;;5027314;28;20448;-61
2023/01/12 10:20:58;;;;;;;1030.57;947.67;;;9.00;99.90;;;;;;5026559;28;20435;-60
2023/01/12 10:23:26;;;;;;;1037.35;955.05;;;9.00;99.90;;;;;;5024419;28;20391;-61
2023/01/12 10:26:21;;;;;;;1013.13;932.65;;;9.00;99.90;;;;;;5022808;28;20684;-61
2023/01/12 10:28:51;;;;;;;1034.40;951.57;;;9.00;99.90;;;;;;5024387;28;20500;-60
2023/01/12 10:31:23;;;;;;;1050.53;965.72;;;9.00;99.90;;;;;;5026046;28;20379;-61
2023/01/12 10:34:09;;;;;;;1079.45;991.97;;;9.00;99.90;;;;;;5026603;28;20497;-61
2023/01/12 10:36:49;;;;;;;1102.50;999.90;;;9.00;99.90;;;;;;5026768;28;20397;-61
2023/01/12 10:39:50;;;;;;;1081.97;995.38;;;9.00;99.90;;;;;;5026589;28;20486;-59
2023/01/12 10:45:15;;;;;;;1111.53;999.90;;;9.00;99.90;;;;;;5025314;28;20437;-62
2023/01/12 10:47:42;;;;;;;1123.38;999.90;;;9.00;99.90;;;;;;5025906;28;20507;-61
2023/01/12 10:50:20;;;;;;;1128.38;999.90;;;9.00;99.90;;;;;;5029904;28;20663;-61
2023/01/12 10:52:46;;;;;;;1112.40;999.90;;;9.00;99.90;;;;;;5029434;28;20414;-60
2023/01/12 10:55:21;;;;;;;1128.53;999.90;;;9.10;99.90;;;;;;5028735;28;20395;-62
2023/01/12 10:57:48;;;;;;;1113.53;999.90;;;9.10;99.90;;;;;;5030210;28;20715;-60
2023/01/12 11:00:33;;;;;;;1130.00;999.90;;;9.10;99.90;;;;;;5029837;28;20394;-63
2023/01/12 11:02:59;;;;;;;1148.90;999.90;;;9.10;99.90;;;;;;5029454;28;20383;-62
2023/01/12 11:05:37;;;;;;;1116.93;999.90;;;9.10;99.90;;;;;;5029996;28;20383;-60
2023/01/12 11:08:27;;;;;;;1172.60;999.90;;;9.10;99.90;;;;;;5034036;28;20407;-62
2023/01/12 11:10:53;;;;;;;1159.07;999.90;;;9.20;99.90;;;;;;5032051;28;20453;-61
2023/01/12 11:13:35;;;;;;;1124.22;999.90;;;9.20;99.90;;;;;;5031263;28;20387;-62
2023/01/12 11:16:24;;;;;;;1125.03;999.90;;;9.20;99.90;;;;;;5030644;28;20449;-62
2023/01/12 11:18:49;;;;;;;1102.57;999.90;;;9.20;99.90;;;;;;5033034;28;20389;-61
2023/01/12 11:21:18;;;;;;;1082.70;997.83;;;9.20;99.90;;;;;;5033435;28;20407;-62
2023/01/12 11:24:13;;;;;;;1100.13;999.90;;;9.30;99.90;;;;;;5029684;28;20399;-61
2023/01/12 11:27:10;;;;;;;1108.82;999.90;;;9.30;99.90;;;;;;5024692;28;20427;-62
2023/01/12 11:30:01;;;;;;;1100.07;999.90;;;9.40;99.90;;;;;;5023003;28;20417;-62
2023/01/12 11:32:35;;;;;;;1102.15;999.90;;;9.40;99.90;;;;;;5023146;28;20375;-62
2023/01/12 11:35:27;;;;;;;1099.20;999.90;;;9.40;99.90;;;;;;5024037;28;20390;-63
2023/01/12 11:37:57;;;;;;;1104.53;999.90;;;9.40;99.90;;;;;;5025538;28;20399;-62
2023/01/12 11:40:34;;;;;;;1077.93;994.35;;;9.40;99.90;;;;;;5026827;28;20418;-62
2023/01/12 11:46:25;;;;;;;1092.45;999.90;;;9.40;99.90;;;;;;5026734;28;20808;-62
2023/01/12 11:48:56;;;;;;;1083.55;997.97;;;9.40;99.90;;;;;;5024962;28;20510;-61
2023/01/12 11:51:23;;;;;;;1058.85;977.40;;;9.40;99.90;;;;;;5024811;28;20407;-62
2023/01/12 11:53:49;;;;;;;1082.72;997.60;;;9.40;99.90;;;;;;5025036;28;20479;-64
2023/01/12 11:56:46;;;;;;;1113.43;999.90;;;9.40;99.90;;;;;;5028915;28;20491;-63
2023/01/12 11:59:35;;;;;;;1117.68;999.90;;;9.40;99.90;;;;;;5028794;28;20391;-63
2023/01/12 12:02:40;;;;;;;1108.70;999.90;;;9.40;99.90;;;;;;5027075;28;20399;-63
2023/01/12 12:05:24;;;;;;;1079.97;992.00;;;9.40;99.90;;;;;;5030049;28;20486;-63
2023/01/12 12:08:14;;;;;;;1110.53;999.90;;;9.40;99.90;;;;;;5025649;28;20745;-62
2023/01/12 12:11:05;;;;;;;1050.10;968.67;;;9.40;99.90;;;;;;5025047;28;20379;-62
2023/01/12 12:13:36;;;;;;;1212.45;999.90;;;9.70;99.90;;;;;;5023990;28;20514;-62
2023/01/12 12:16:29;;;;;;;1196.30;999.90;;;9.70;99.90;;;;;;5023606;28;20426;-62
2023/01/12 12:19:12;;;;;;;1221.25;999.90;;;9.60;99.90;;;;;;5025764;28;20445;-62
2023/01/12 12:21:49;;;;;;;1213.18;999.90;;;9.60;99.90;;;;;;5026259;28;20403;-62
2023/01/12 12:24:21;;;;;;;1203.68;999.90;;;9.60;99.90;;;;;;5025223;28;20401;-62
2023/01/12 12:27:16;;;;;;;1215.55;999.90;;;9.60;99.90;;;;;;5025257;28;20403;-62
2023/01/12 12:30:08;;;;;;;1192.05;999.90;;;9.60;99.90;;;;;;5018824;28;20449;-62
2023/01/12 12:33:04;;;;;;;1199.57;999.90;;;9.60;99.90;;;;;;5030585;28;20387;-59
2023/01/12 12:36:16;;;;;;;1200.00;999.90;;;9.60;99.90;;;;;;5032095;28;20675;-60
2023/01/12 12:39:00;;;;;;;1185.35;999.90;;;9.60;99.90;;;;;;4977542;28;20457;-61
2023/01/12 12:47:57;;;;;;;1195.90;999.90;;;9.70;99.90;;;;;;5005062;28;20380;-61
2023/01/12 12:50:28;;;;;;;1193.88;999.90;;;9.70;99.90;;;;;;5017831;28;20380;-61
2023/01/12 12:53:12;;;;;;;1194.63;999.90;;;9.70;99.90;;;;;;5014724;28;20429;-61
2023/01/12 12:55:38;;;;;;;1204.93;999.90;;;9.70;99.90;;;;;;5015037;28;20381;-61
2023/01/12 12:58:40;;;;;;;1177.80;999.90;;;9.70;99.90;;;;;;4999051;28;20385;-60
2023/01/12 13:01:18;;;;;;;1177.28;999.90;;;9.70;99.90;;;;;;5016242;28;20393;-60
2023/01/12 13:03:52;;;;;;;1214.73;999.90;;;9.70;99.90;;;;;;5016923;28;20976;-60
2023/01/12 13:06:30;;;;;;;1185.22;999.90;;;9.70;99.90;;;;;;5019471;28;20859;-60
2023/01/12 13:09:11;;;;;;;1190.38;999.90;;;9.70;99.90;;;;;;5019706;28;20416;-60
2023/01/12 13:11:59;;;;;;;1192.55;999.90;;;9.80;99.90;;;;;;5019221;28;20929;-60
2023/01/12 13:14:30;;;;;;;1192.18;999.90;;;9.90;99.90;;;;;;5002663;28;20384;-60